Kings Mountain, NC (28086)

11:51 PM EST on March 02, 2015 (GMT -0500)
Edgewood Road Gastonia NC | Change Station
CLOSE
Current Station
Personal Weather Station
Location: Bessemer City, NC
Elevation: 783 ft
Nearby Weather Stations

Elev 783 ft 35.26 °N, 81.26 °W | Updated 16 minutes ago

Overcast
Overcast
51.9 °F
Feels Like 51.9 °F
N
2.0
Wind Variable Wind from NNE
Gusts 6.0 mph

Today
High -- | Low -- °F
--% Chance of Precip.
Yesterday
High -- | Low -- °F
Precip. -- in
6:54 AM 6:21 PM
Waxing Gibbous, 94% visible
Pressure 30.30 in
Visibility 10.0 miles
Clouds Overcast 3700 ft
Dew Point 29 °F
Humidity 41%
Rainfall 0.00 in
Snow Depth Not available.
UV 0.0 out of 12
Pollen 8.40 out of 12
Air Quality Not available.
Flu Activity Not available.
METAR KAKH 030354Z AUTO 04007KT 10SM OVC037 12/M03 A3030 RMK AO2 SLP261 T01171033

More Conditions Fewer Conditions

Pressure 30.30 in
Visibility 10.0 miles
Clouds Overcast 3700 ft
Dew Point 29 °F
Humidity 41%
Rainfall 0.00 in
Snow Depth Not available.
UV 0.0 out of 12
Pollen 8.40 out of 12
Air Quality Not available.
Flu Activity Not available.
METAR KAKH 030354Z AUTO 04007KT 10SM OVC037 12/M03 A3030 RMK AO2 SLP261 T01171033

More Conditions Fewer Conditions

10-Day Weather Forecast

Almanac

Astronomy

Mar. 02, 2015 Rise Set
Actual Time
Civil Twilight
Nautical Twilight
Astronomical Twilight
Moon
Length of Visible Light
Length of Day
Tomorrow will be .
, % of the Moon is Illuminated

Today's Extremes

State Highs State Lows

Community

WunderPhotos

Upload Photos

1,802,064 photos uploaded!

WunderBlogs® & News

Nearby

Air Quality

  Air Quality AQ Index Pollutant
Not available.

Snow Depth

Station Depth Elevation

Earthquake Activity

City Distance Mag. Time & Date
Minimum magnitude displayed is 2.5.

Coastal Water Temperatures

Place Temperature

Nearby Weather Stations